Time;durP1;ratioP1;P1;durP2;ratioP2;P2;SDS_P1;SDS_P2;PMS_P1;PMS_P2;Temp;Humidity;BMP_temperature;BMP_pressure;BME280_temperature;BME280_humidity;BME280_pressure;Samples;Min_cycle;Max_cycle;Signal;HPM_P1;HPM_P2
2022/07/08 00:01:45;;;;;;;5.90;5.60;;;;;;;24.60;72.75;99345.72;5054541;28;20201;-72
2022/07/08 00:04:12;;;;;;;5.80;5.50;;;;;;;24.57;72.45;99355.25;5054106;28;20207;-73
2022/07/08 00:06:39;;;;;;;6.03;5.70;;;;;;;24.60;71.41;99360.16;5054319;28;20249;-73
2022/07/08 00:09:07;;;;;;;6.07;5.77;;;;;;;24.64;70.72;99358.47;5054378;28;20203;-73
2022/07/08 00:11:34;;;;;;;6.20;5.80;;;;;;;24.61;71.08;99364.47;5054018;28;20742;-73
2022/07/08 00:14:00;;;;;;;6.10;5.80;;;;;;;24.60;71.03;99365.56;5053757;28;20230;-72
2022/07/08 00:16:27;;;;;;;6.77;6.17;;;;;;;24.56;71.31;99366.41;5053733;28;20260;-72
2022/07/08 00:18:55;;;;;;;7.17;6.63;;;;;;;24.53;71.36;99364.25;5052764;28;20737;-72
2022/07/08 00:21:22;;;;;;;7.13;6.30;;;;;;;24.54;72.64;99353.09;5054473;28;20282;-72
2022/07/08 00:23:49;;;;;;;6.60;6.20;;;;;;;24.52;72.73;99357.22;5054231;28;20204;-72
2022/07/08 00:26:16;;;;;;;7.13;6.13;;;;;;;24.48;72.72;99359.72;5053513;28;20188;-72
2022/07/08 00:28:42;;;;;;;6.80;6.40;;;;;;;24.39;72.66;99352.47;5054276;28;20194;-72
2022/07/08 00:31:09;;;;;;;6.50;6.13;;;;;;;24.34;72.84;99347.91;5053556;28;20682;-73
2022/07/08 00:33:36;;;;;;;6.80;6.27;;;;;;;24.25;73.66;99349.66;5054170;28;20281;-72
2022/07/08 00:36:05;;;;;;;6.60;6.23;;;;;;;24.18;74.36;99337.53;5053206;28;20253;-73
2022/07/08 00:38:32;;;;;;;8.20;7.50;;;;;;;24.10;74.64;99336.22;5052763;28;20674;-72
2022/07/08 00:40:58;;;;;;;8.27;7.53;;;;;;;23.99;75.25;99340.16;5053219;28;20257;-74
2022/07/08 00:43:26;;;;;;;8.33;7.67;;;;;;;23.78;75.66;99314.28;5053621;28;20191;-72
2022/07/08 00:45:53;;;;;;;8.03;7.53;;;;;;;23.78;76.97;99333.28;5053193;28;20697;-72
2022/07/08 00:48:20;;;;;;;10.70;7.40;;;;;;;23.49;78.56;99324.28;5053738;28;20272;-72
2022/07/08 00:50:47;;;;;;;7.63;7.03;;;;;;;23.50;78.80;99325.09;5053482;28;20265;-72
2022/07/08 00:53:16;;;;;;;7.77;7.30;;;;;;;23.51;78.32;99322.13;5053335;28;20222;-72
2022/07/08 00:55:42;;;;;;;7.67;7.17;;;;;;;23.52;78.35;99329.16;5053069;28;20247;-72
2022/07/08 00:58:09;;;;;;;7.73;7.10;;;;;;;23.51;78.19;99326.72;5053162;28;20202;-72
2022/07/08 01:00:37;;;;;;;8.23;7.63;;;;;;;23.51;79.00;99327.53;5053005;28;20570;-72
2022/07/08 01:03:04;;;;;;;8.93;8.17;;;;;;;23.40;80.46;99325.19;5053459;28;20244;-72
2022/07/08 01:05:31;;;;;;;9.40;8.67;;;;;;;23.43;82.06;99327.31;5053635;28;20209;-73
2022/07/08 01:07:58;;;;;;;9.47;8.77;;;;;;;23.39;82.71;99327.09;5053294;28;20251;-73
2022/07/08 01:10:26;;;;;;;11.57;9.50;;;;;;;23.37;83.35;99323.88;5053353;28;20194;-72
2022/07/08 01:12:53;;;;;;;11.13;10.30;;;;;;;23.28;83.86;99317.41;5052658;28;20665;-73
2022/07/08 01:15:21;;;;;;;9.47;8.70;;;;;;;23.28;84.20;99311.97;5052727;28;20705;-72
2022/07/08 01:17:48;;;;;;;10.37;9.73;;;;;;;23.17;85.02;99315.84;5052835;28;20193;-72
2022/07/08 01:20:15;;;;;;;11.00;10.30;;;;;;;22.89;86.58;99305.72;5053159;28;20190;-73
2022/07/08 01:22:43;;;;;;;9.83;9.27;;;;;;;23.02;86.26;99312.41;5052820;28;20196;-73
2022/07/08 01:25:11;;;;;;;9.03;8.53;;;;;;;23.10;86.27;99315.34;5052467;28;20197;-73
2022/07/08 01:27:38;;;;;;;9.13;8.47;;;;;;;23.10;86.14;99318.06;5052696;28;20204;-72
2022/07/08 01:30:07;;;;;;;9.67;8.77;;;;;;;23.09;85.79;99300.19;5052536;28;20281;-74
2022/07/08 01:32:35;;;;;;;9.50;8.97;;;;;;;22.96;86.41;99311.66;5052456;28;20256;-73
2022/07/08 01:35:02;;;;;;;11.83;10.83;;;;;;;22.77;88.21;99305.25;5052330;28;20227;-73
2022/07/08 01:37:29;;;;;;;10.73;10.03;;;;;;;22.80;88.84;99310.13;5053585;28;20193;-73
2022/07/08 01:39:57;;;;;;;12.70;11.70;;;;;;;22.84;88.61;99303.06;5052762;28;20193;-73
2022/07/08 01:42:24;;;;;;;11.50;10.63;;;;;;;22.86;89.21;99310.88;5052468;28;20224;-73
2022/07/08 01:44:51;;;;;;;11.90;11.00;;;;;;;22.88;89.40;99309.53;5052523;28;20197;-73
2022/07/08 01:47:17;;;;;;;11.97;11.00;;;;;;;22.90;89.49;99312.75;5053086;28;20270;-73
2022/07/08 01:49:44;;;;;;;12.53;11.30;;;;;;;22.86;89.60;99314.41;5052274;28;20195;-72
2022/07/08 01:52:11;;;;;;;14.17;12.97;;;;;;;22.58;90.19;99322.44;5052183;28;20193;-73
2022/07/08 01:54:38;;;;;;;14.13;12.27;;;;;;;22.53;90.67;99320.53;5052101;28;20216;-72
2022/07/08 01:57:15;;;;;;;13.63;12.63;;;;;;;22.58;91.21;99320.50;5051903;28;20193;-73
2022/07/08 01:59:42;;;;;;;13.03;11.93;;;;;;;22.66;91.01;99319.13;5053035;28;20258;-72
2022/07/08 02:02:08;;;;;;;13.37;12.20;;;;;;;22.51;91.46;99325.44;5052128;28;20193;-73
2022/07/08 02:04:35;;;;;;;13.40;12.40;;;;;;;22.28;92.75;99319.78;5052255;28;20200;-73
2022/07/08 02:07:02;;;;;;;14.57;13.23;;;;;;;22.35;92.96;99323.84;5052012;28;20623;-73
2022/07/08 02:09:29;;;;;;;15.53;14.23;;;;;;;22.33;92.49;99325.22;5052847;28;20196;-73
2022/07/08 02:14:42;;;;;;;15.07;13.67;;;;;;;22.27;92.00;99310.88;5052023;28;20266;-73
2022/07/08 02:17:09;;;;;;;17.23;14.57;;;;;;;22.29;92.43;99330.34;5052172;28;20243;-73
2022/07/08 02:19:36;;;;;;;15.80;14.50;;;;;;;22.22;92.59;99329.81;5052996;28;20281;-73
2022/07/08 02:22:03;;;;;;;14.50;13.40;;;;;;;22.20;92.94;99337.41;5051773;28;20193;-73
2022/07/08 02:24:30;;;;;;;15.20;13.90;;;;;;;21.92;94.16;99334.50;5052356;28;20205;-73
2022/07/08 02:26:57;;;;;;;15.37;14.23;;;;;;;21.65;95.79;99334.78;5052061;28;20663;-73
2022/07/08 02:29:23;;;;;;;14.80;13.47;;;;;;;21.66;95.56;99333.69;5052368;28;20201;-73
2022/07/08 02:31:52;;;;;;;16.57;14.90;;;;;;;21.50;96.24;99337.47;5052325;28;20270;-73
2022/07/08 02:34:18;;;;;;;15.83;14.43;;;;;;;21.48;96.52;99331.50;5051390;28;20220;-73
2022/07/08 02:36:45;;;;;;;17.07;15.50;;;;;;;21.35;97.70;99344.78;5052251;28;20200;-73
2022/07/08 02:39:12;;;;;;;18.73;15.63;;;;;;;21.29;97.93;99354.75;5052786;28;20201;-73
2022/07/08 02:41:39;;;;;;;21.17;16.20;;;;;;;21.19;98.63;99351.22;5054481;28;20763;-73
2022/07/08 02:44:07;;;;;;;17.87;15.43;;;;;;;21.09;99.11;99352.03;5056198;28;20200;-73
2022/07/08 02:46:33;;;;;;;17.27;15.50;;;;;;;20.87;100.00;99358.69;5056254;28;20210;-73
2022/07/08 02:49:02;;;;;;;17.50;16.03;;;;;;;20.87;100.00;99359.50;5056716;28;20193;-73
2022/07/08 02:51:28;;;;;;;17.17;15.53;;;;;;;20.89;100.00;99353.81;5056760;28;20200;-74
2022/07/08 02:53:55;;;;;;;16.93;15.50;;;;;;;20.91;100.00;99355.22;5055246;28;20224;-74
2022/07/08 02:56:22;;;;;;;19.17;14.83;;;;;;;21.05;100.00;99356.34;5055635;28;20265;-73
2022/07/08 02:58:49;;;;;;;16.87;15.27;;;;;;;21.18;99.41;99355.81;5054995;28;20676;-73
2022/07/08 03:01:16;;;;;;;15.93;14.27;;;;;;;21.23;98.57;99358.50;5055309;28;20192;-73
2022/07/08 03:03:42;;;;;;;18.00;14.17;;;;;;;21.21;98.44;99363.38;5056120;28;20196;-73
2022/07/08 03:06:11;;;;;;;14.73;13.57;;;;;;;21.23;98.20;99366.63;5055738;28;20193;-73
2022/07/08 03:08:37;;;;;;;15.23;13.77;;;;;;;21.37;97.81;99364.22;5056386;28;20193;-73
2022/07/08 03:11:04;;;;;;;14.07;13.07;;;;;;;21.31;97.21;99374.19;5055468;28;20223;-73
2022/07/08 03:13:31;;;;;;;14.83;13.57;;;;;;;21.30;97.06;99371.75;5055189;28;20664;-72
2022/07/08 03:15:58;;;;;;;15.47;14.00;;;;;;;21.26;96.89;99378.78;5056185;28;20237;-73
2022/07/08 03:18:25;;;;;;;15.97;14.43;;;;;;;21.20;97.02;99375.28;5055751;28;20617;-73
2022/07/08 03:20:51;;;;;;;15.93;14.47;;;;;;;21.17;97.73;99383.91;5055408;28;20287;-73
2022/07/08 03:23:20;;;;;;;14.10;12.90;;;;;;;21.27;97.43;99381.22;5055599;28;20196;-73
2022/07/08 03:25:46;;;;;;;15.03;13.93;;;;;;;21.30;96.74;99369.88;5056105;28;20246;-72
2022/07/08 03:28:13;;;;;;;15.40;13.80;;;;;;;21.44;96.63;99370.19;5055214;28;20196;-73
2022/07/08 03:30:40;;;;;;;15.77;14.57;;;;;;;21.38;96.16;99372.06;5055177;28;20270;-73
2022/07/08 03:33:06;;;;;;;14.83;13.70;;;;;;;21.36;96.70;99368.78;5054658;28;20193;-73
2022/07/08 03:35:33;;;;;;;13.00;12.10;;;;;;;21.40;95.98;99363.69;5054725;28;20228;-73
2022/07/08 03:38:00;;;;;;;20.33;14.17;;;;;;;21.56;94.95;99365.31;5054716;28;20721;-73
2022/07/08 03:43:12;;;;;;;13.27;11.67;;;;;;;22.04;91.75;99370.16;5055309;28;20227;-74
2022/07/08 03:45:39;;;;;;;13.93;12.40;;;;;;;22.25;90.23;99371.78;5054499;28;20196;-73
2022/07/08 03:48:06;;;;;;;13.20;11.93;;;;;;;22.40;89.49;99375.25;5055158;28;20197;-73
2022/07/08 03:50:33;;;;;;;16.43;12.90;;;;;;;22.57;87.50;99373.03;5054495;28;20275;-73
2022/07/08 03:53:00;;;;;;;12.87;11.50;;;;;;;22.58;87.68;99373.88;5054315;28;20247;-73
2022/07/08 03:55:28;;;;;;;12.80;11.80;;;;;;;22.65;87.32;99364.34;5054423;28;20220;-73
2022/07/08 03:57:54;;;;;;;11.87;10.77;;;;;;;22.66;86.49;99373.31;5054378;28;20665;-73
2022/07/08 04:00:22;;;;;;;11.73;10.83;;;;;;;22.59;86.21;99379.00;5054189;28;20190;-73
2022/07/08 04:02:49;;;;;;;19.67;10.93;;;;;;;22.69;85.58;99378.13;5054288;28;20250;-73
2022/07/08 04:05:16;;;;;;;10.87;9.70;;;;;;;22.78;84.86;99380.00;5054400;28;20200;-73
2022/07/08 04:07:43;;;;;;;10.63;9.93;;;;;;;22.96;84.09;99384.81;5054182;28;20196;-73
2022/07/08 04:10:10;;;;;;;11.20;10.00;;;;;;;23.29;82.47;99373.25;5054152;28;20254;-72
2022/07/08 04:12:38;;;;;;;27.50;13.73;;;;;;;23.75;80.29;99388.09;5054099;28;20657;-72
2022/07/08 04:15:06;;;;;;;18.07;10.53;;;;;;;24.14;78.66;99386.13;5053815;28;20697;-72
2022/07/08 04:17:32;;;;;;;11.27;10.47;;;;;;;24.61;76.65;99388.91;5053869;28;20198;-71
2022/07/08 04:19:59;;;;;;;12.50;10.33;;;;;;;25.40;73.87;99392.78;5054000;28;20194;-71
2022/07/08 04:22:26;;;;;;;10.73;9.37;;;;;;;25.98;70.75;99400.31;5053677;28;20269;-71
2022/07/08 04:24:52;;;;;;;10.13;9.33;;;;;;;26.39;67.87;99403.13;5053306;28;20641;-71
2022/07/08 04:27:19;;;;;;;9.33;8.73;;;;;;;26.10;68.47;99392.50;5053403;28;20197;-71
2022/07/08 04:29:47;;;;;;;9.53;8.77;;;;;;;25.80;69.29;99392.16;5053334;28;20193;-71
2022/07/08 04:32:14;;;;;;;10.30;9.37;;;;;;;25.35;70.99;99385.50;5053745;28;20204;-72
2022/07/08 04:34:41;;;;;;;10.70;9.67;;;;;;;25.21;72.29;99390.03;5053681;28;20264;-71
2022/07/08 04:37:07;;;;;;;9.87;9.17;;;;;;;25.11;73.25;99389.38;5053366;28;20192;-72
2022/07/08 04:39:34;;;;;;;10.87;10.10;;;;;;;25.04;73.16;99387.03;5054484;28;20196;-72
2022/07/08 04:42:01;;;;;;;11.23;10.10;;;;;;;25.02;73.42;99391.94;5053088;28;20704;-71
2022/07/08 04:44:28;;;;;;;10.50;9.70;;;;;;;24.91;73.41;99396.69;5053514;28;20207;-72
2022/07/08 04:46:56;;;;;;;14.43;9.30;;;;;;;24.85;73.75;99392.44;5054074;28;20197;-72
2022/07/08 04:49:24;;;;;;;20.40;10.63;;;;;;;25.00;74.71;99386.78;5053127;28;20195;-72
2022/07/08 04:51:51;;;;;;;11.57;10.30;;;;;;;26.03;70.54;99402.13;5052940;28;20660;-71
2022/07/08 04:54:18;;;;;;;12.00;9.60;;;;;;;27.08;67.34;99406.38;5052647;28;20189;-71
2022/07/08 04:56:45;;;;;;;16.93;9.27;;;;;;;27.89;63.06;99413.56;5052912;28;20223;-72
2022/07/08 04:59:11;;;;;;;10.70;9.67;;;;;;;28.29;61.11;99412.50;5053143;28;20189;-70
2022/07/08 05:01:38;;;;;;;11.67;8.67;;;;;;;29.09;58.98;99415.75;5052716;28;20529;-70
2022/07/08 05:04:06;;;;;;;26.33;9.70;;;;;;;30.11;54.13;99425.94;5052235;28;20196;-70
2022/07/08 05:06:33;;;;;;;7.77;7.27;;;;;;;30.30;53.14;99424.50;5052492;28;20879;-70
2022/07/08 05:09:00;;;;;;;8.63;7.83;;;;;;;30.78;51.77;99430.47;5052861;28;20734;-70
2022/07/08 05:11:26;;;;;;;9.90;9.13;;;;;;;31.23;50.18;99425.25;5052362;28;20197;-71
2022/07/08 05:13:53;;;;;;;9.73;8.90;;;;;;;31.56;49.91;99420.66;5052819;28;20268;-70
2022/07/08 05:16:20;;;;;;;9.97;8.90;;;;;;;31.93;48.26;99428.75;5052732;28;20224;-71
2022/07/08 05:18:46;;;;;;;17.63;9.80;;;;;;;32.47;46.92;99435.00;5052669;28;20658;-70
2022/07/08 05:21:15;;;;;;;10.27;8.03;;;;;;;32.69;46.16;99435.38;5052807;28;20204;-70
2022/07/08 05:23:41;;;;;;;10.50;8.07;;;;;;;33.00;45.02;99435.63;5053152;28;20196;-70
2022/07/08 05:26:08;;;;;;;8.20;7.50;;;;;;;33.37;43.05;99438.38;5052417;28;20204;-70
2022/07/08 05:28:35;;;;;;;7.40;6.73;;;;;;;33.43;41.69;99442.53;5052745;28;20188;-70
2022/07/08 05:31:01;;;;;;;6.83;6.17;;;;;;;33.55;41.81;99442.50;5052361;28;20623;-70
2022/07/08 05:33:28;;;;;;;7.07;6.70;;;;;;;33.93;41.11;99442.84;5049037;28;20223;-71
2022/07/08 05:35:55;;;;;;;8.60;7.47;;;;;;;34.44;39.94;99439.97;5051938;28;20278;-71
2022/07/08 05:38:23;;;;;;;9.18;7.93;;;;;;;34.39;39.48;99433.91;5051781;28;20608;-70
2022/07/08 05:40:50;;;;;;;6.70;6.20;;;;;;;34.35;39.49;99441.28;5051962;28;20246;-70
2022/07/08 05:43:17;;;;;;;7.72;7.15;;;;;;;34.54;39.32;99430.38;5052264;28;20196;-70
2022/07/08 05:45:43;;;;;;;7.55;7.10;;;;;;;34.55;39.61;99424.50;5051863;28;20698;-72
2022/07/08 05:48:10;;;;;;;9.52;7.22;;;;;;;34.53;39.03;99437.06;5051818;28;20726;-70
2022/07/08 05:50:37;;;;;;;8.57;7.60;;;;;;;34.51;39.52;99436.59;5051769;28;20192;-69
2022/07/08 05:53:04;;;;;;;8.30;7.53;;;;;;;34.37;40.29;99444.50;5052338;28;20262;-70
2022/07/08 05:55:32;;;;;;;9.93;8.77;;;;;;;34.43;40.24;99432.03;5051707;28;20220;-70
2022/07/08 05:57:58;;;;;;;10.02;8.52;;;;;;;34.34;40.58;99439.69;5051830;28;20649;-72
2022/07/08 06:00:25;;;;;;;9.35;8.68;;;;;;;34.03;41.28;99442.34;5051898;28;20251;-70
2022/07/08 06:02:52;;;;;;;9.30;8.60;;;;;;;33.56;42.19;99408.28;5051743;28;20571;-70
2022/07/08 06:05:19;;;;;;;9.40;8.60;;;;;;;34.00;41.36;99440.31;5052140;28;20208;-71
2022/07/08 06:07:46;;;;;;;10.05;8.98;;;;;;;34.23;40.48;99438.56;5051389;28;20680;-71
2022/07/08 06:10:12;;;;;;;9.47;8.90;;;;;;;34.05;41.66;99437.28;5051899;28;20192;-71
2022/07/08 06:12:41;;;;;;;9.13;8.32;;;;;;;34.29;41.24;99439.94;5051639;28;20204;-70
2022/07/08 06:15:13;;;;;;;7.97;7.47;;;;;;;34.60;40.39;99443.56;5050855;28;20641;-70
2022/07/08 06:17:40;;;;;;;8.85;7.63;;;;;;;34.74;39.87;99437.59;5051619;28;20192;-70
2022/07/08 06:20:08;;;;;;;14.10;7.00;;;;;;;34.71;39.21;99438.28;5051592;28;20197;-71
2022/07/08 06:22:35;;;;;;;10.48;6.97;;;;;;;34.70;39.39;99428.41;5051357;28;20645;-71
2022/07/08 06:25:02;;;;;;;12.95;7.72;;;;;;;34.34;39.67;99431.41;5051661;28;20257;-71
2022/07/08 06:27:29;;;;;;;7.32;6.65;;;;;;;33.52;41.94;99424.72;5051409;28;20681;-70
2022/07/08 06:29:57;;;;;;;7.45;6.93;;;;;;;33.51;42.41;99434.09;5051270;28;20578;-70
2022/07/08 06:32:24;;;;;;;8.25;7.65;;;;;;;33.59;42.71;99424.91;5051166;28;20616;-71
2022/07/08 06:34:50;;;;;;;10.80;7.78;;;;;;;33.49;43.37;99425.41;5051185;28;20192;-71
2022/07/08 06:37:17;;;;;;;14.27;7.30;;;;;;;33.66;42.94;99407.78;5051666;28;20193;-72
2022/07/08 06:39:44;;;;;;;7.38;6.97;;;;;;;33.50;42.68;99424.25;5051214;28;20895;-71
2022/07/08 06:42:11;;;;;;;8.83;8.07;;;;;;;33.21;42.79;99417.06;5051281;28;20727;-71
2022/07/08 06:44:37;;;;;;;8.23;7.63;;;;;;;32.93;44.13;99413.41;5051107;28;20683;-72
2022/07/08 06:47:06;;;;;;;8.33;7.67;;;;;;;32.77;44.55;99411.66;5051580;28;20203;-71
2022/07/08 06:49:32;;;;;;;8.50;7.67;;;;;;;32.84;42.75;99409.16;5051146;28;20196;-72
2022/07/08 06:51:59;;;;;;;9.63;7.13;;;;;;;33.04;42.60;99408.25;5050806;28;20193;-71
2022/07/08 06:54:38;;;;;;;18.83;6.80;;;;;;;33.45;42.23;99404.41;5050492;28;20264;-69
2022/07/08 06:57:07;;;;;;;8.53;7.70;;;;;;;33.03;43.36;99399.16;5051422;28;20208;-71
2022/07/08 06:59:34;;;;;;;9.57;7.27;;;;;;;33.22;42.01;99407.66;5050464;28;20192;-70
2022/07/08 07:02:00;;;;;;;6.83;6.33;;;;;;;33.46;42.00;99406.00;5051071;28;20201;-70
2022/07/08 07:04:29;;;;;;;6.23;5.90;;;;;;;33.67;40.55;99395.63;5051267;28;20273;-70
2022/07/08 07:06:56;;;;;;;7.73;7.03;;;;;;;33.93;40.76;99404.25;5051222;28;20749;-71
2022/07/08 07:09:23;;;;;;;8.75;7.97;;;;;;;34.06;40.53;99400.28;5050985;28;20660;-71
2022/07/08 07:11:49;;;;;;;7.95;7.25;;;;;;;33.79;40.53;99401.06;5051235;28;20721;-71
2022/07/08 07:14:16;;;;;;;13.83;8.07;;;;;;;33.39;41.64;99386.53;5051441;28;20626;-71
2022/07/08 07:16:43;;;;;;;6.57;6.10;;;;;;;33.27;40.91;99395.56;5051019;28;20224;-70
2022/07/08 07:19:10;;;;;;;13.07;8.27;;;;;;;33.25;41.69;99393.19;5050621;28;20193;-71
2022/07/08 07:21:38;;;;;;;7.90;7.13;;;;;;;32.82;43.54;99395.75;5051107;28;20189;-70
2022/07/08 07:24:06;;;;;;;7.87;7.27;;;;;;;32.48;44.01;99396.16;5050916;28;20258;-71
2022/07/08 07:26:33;;;;;;;7.83;7.33;;;;;;;32.35;44.94;99386.28;5050676;28;20192;-70
2022/07/08 07:29:00;;;;;;;8.27;7.60;;;;;;;31.80;46.17;99380.38;5054490;28;20618;-70
2022/07/08 07:31:26;;;;;;;6.63;6.13;;;;;;;32.25;45.08;99381.19;5054327;28;20196;-72
2022/07/08 07:33:53;;;;;;;7.83;7.03;;;;;;;32.49;44.79;99380.44;5054282;28;20551;-70
2022/07/08 07:36:20;;;;;;;7.43;6.90;;;;;;;32.67;43.95;99377.13;5054651;28;20286;-70
2022/07/08 07:38:48;;;;;;;7.50;7.10;;;;;;;32.93;41.95;99377.63;5054078;28;20188;-71
2022/07/08 07:41:16;;;;;;;6.70;6.20;;;;;;;33.33;41.56;99369.44;5054498;28;20216;-71
2022/07/08 07:43:42;;;;;;;6.90;6.20;;;;;;;33.76;40.09;99379.72;5054556;28;20188;-72
2022/07/08 07:46:09;;;;;;;7.00;6.55;;;;;;;33.87;40.20;99381.66;5054564;28;20205;-71
2022/07/08 07:48:36;;;;;;;7.57;7.17;;;;;;;33.84;40.44;99384.31;5053647;28;20734;-72
2022/07/08 07:51:03;;;;;;;8.70;7.97;;;;;;;33.85;40.02;99389.50;5054047;28;20200;-71
2022/07/08 07:53:30;;;;;;;6.80;6.40;;;;;;;34.06;39.97;99373.53;5054345;28;20250;-71
2022/07/08 07:55:58;;;;;;;7.03;6.72;;;;;;;34.11;39.90;99378.78;5053822;28;20765;-71
2022/07/08 07:58:25;;;;;;;7.40;6.75;;;;;;;34.41;39.81;99379.97;5053873;28;20732;-71
2022/07/08 08:00:52;;;;;;;6.65;6.13;;;;;;;34.67;38.90;99384.97;5054134;28;20276;-71
2022/07/08 08:03:19;;;;;;;8.02;7.38;;;;;;;34.58;39.65;99381.59;5054131;28;20200;-74
2022/07/08 08:05:46;;;;;;;15.95;7.47;;;;;;;34.50;39.82;99366.78;5054307;28;20201;-71
2022/07/08 08:08:13;;;;;;;20.15;11.95;;;;;;;34.17;41.04;99373.81;5054338;28;20201;-71
2022/07/08 08:10:40;;;;;;;8.65;8.10;;;;;;;33.92;41.17;99373.13;5054352;28;20195;-71
2022/07/08 08:13:10;;;;;;;14.32;8.07;;;;;;;33.53;42.14;99370.41;5053950;28;20733;-71
2022/07/08 08:15:37;;;;;;;8.83;7.53;;;;;;;32.31;45.11;99368.06;5054094;28;20223;-70
2022/07/08 08:18:05;;;;;;;8.50;7.93;;;;;;;32.32;43.89;99370.47;5053975;28;20197;-70
2022/07/08 08:20:32;;;;;;;8.43;7.83;;;;;;;32.51;43.36;99361.66;5053823;28;20231;-71
2022/07/08 08:22:59;;;;;;;24.87;9.03;;;;;;;32.52;43.73;99358.56;5053807;28;20660;-70
2022/07/08 08:25:27;;;;;;;8.80;8.10;;;;;;;32.31;44.37;99346.06;5053663;28;20201;-70
2022/07/08 08:27:54;;;;;;;7.67;7.07;;;;;;;32.62;42.19;99355.34;5053567;28;20252;-70
2022/07/08 08:30:22;;;;;;;8.43;7.87;;;;;;;32.67;42.89;99344.09;5053757;28;20255;-71
2022/07/08 08:32:48;;;;;;;8.20;7.33;;;;;;;32.91;43.29;99344.13;5054045;28;20652;-70
2022/07/08 08:35:16;;;;;;;7.60;7.17;;;;;;;33.13;41.71;99343.66;5053269;28;20197;-71
2022/07/08 08:37:42;;;;;;;7.87;6.67;;;;;;;33.32;40.37;99345.00;5053511;28;20228;-71
2022/07/08 08:40:15;;;;;;;7.50;7.10;;;;;;;33.55;39.51;99346.06;5052637;28;20255;-71
2022/07/08 08:42:43;;;;;;;6.93;6.33;;;;;;;33.58;39.99;99342.59;5053809;28;20310;-71
2022/07/08 08:45:10;;;;;;;7.32;6.82;;;;;;;33.82;39.22;99350.78;5052998;28;20288;-73
2022/07/08 08:47:39;;;;;;;7.30;6.78;;;;;;;34.07;38.06;99344.78;5053144;28;20204;-70
2022/07/08 08:52:54;;;;;;;8.48;7.35;;;;;;;34.45;37.83;99344.22;5053303;28;20647;-70
2022/07/08 08:55:26;;;;;;;8.15;7.57;;;;;;;34.48;38.36;99346.25;5053323;28;20192;-71
2022/07/08 08:57:53;;;;;;;8.38;7.88;;;;;;;34.23;39.10;99336.50;5054354;28;20189;-71
2022/07/08 09:00:21;;;;;;;8.05;7.38;;;;;;;34.03;39.87;99332.03;5052922;28;20660;-71
2022/07/08 09:02:49;;;;;;;8.48;7.93;;;;;;;34.00;39.84;99330.00;5053040;28;20190;-71
2022/07/08 09:05:16;;;;;;;7.68;6.95;;;;;;;33.98;39.74;99329.56;5053210;28;20204;-72
2022/07/08 09:07:43;;;;;;;8.13;7.50;;;;;;;34.06;39.68;99323.88;5052079;28;20193;-71
2022/07/08 09:10:11;;;;;;;7.75;7.13;;;;;;;33.99;39.91;99315.41;5052476;28;20242;-71
2022/07/08 09:12:38;;;;;;;7.07;6.68;;;;;;;34.12;39.83;99316.16;5052537;28;20205;-70
2022/07/08 09:15:05;;;;;;;7.60;7.13;;;;;;;34.20;38.63;99317.91;5052129;28;20192;-73
2022/07/08 09:17:32;;;;;;;7.45;7.13;;;;;;;34.20;38.89;99317.91;5052692;28;20224;-72
2022/07/08 09:20:01;;;;;;;7.72;7.15;;;;;;;33.88;39.06;99311.56;5052617;28;20189;-72
2022/07/08 09:22:27;;;;;;;7.22;6.63;;;;;;;33.80;39.43;99314.47;5052053;28;20193;-71
2022/07/08 09:24:57;;;;;;;7.75;7.07;;;;;;;33.63;40.03;99314.81;5052554;28;20189;-71
2022/07/08 09:27:24;;;;;;;7.57;7.00;;;;;;;33.73;39.36;99308.75;5052424;28;20235;-71
2022/07/08 09:30:01;;;;;;;8.07;6.32;;;;;;;33.97;38.88;99306.69;5052757;28;20201;-71
2022/07/08 09:32:28;;;;;;;5.45;5.15;;;;;;;34.12;37.39;99314.19;5052425;28;20244;-71
2022/07/08 09:34:55;;;;;;;6.65;5.60;;;;;;;34.24;36.97;99305.81;5052275;28;20643;-71
2022/07/08 09:37:24;;;;;;;5.47;5.18;;;;;;;34.31;36.94;99308.78;5052634;28;20616;-71
2022/07/08 09:39:50;;;;;;;5.68;5.10;;;;;;;33.53;38.58;99309.78;5052009;28;20612;-71
2022/07/08 09:42:17;;;;;;;5.30;4.90;;;;;;;33.62;37.47;99311.22;5052307;28;20641;-71
2022/07/08 09:44:51;;;;;;;5.45;5.25;;;;;;;34.12;36.07;99314.19;5052184;28;20283;-71
2022/07/08 09:47:18;;;;;;;5.57;5.07;;;;;;;34.23;35.36;99300.66;5051765;28;20275;-72
2022/07/08 09:49:47;;;;;;;4.75;4.30;;;;;;;34.50;35.32;99300.56;5051504;28;20560;-72
2022/07/08 09:52:21;;;;;;;4.60;4.30;;;;;;;34.54;34.81;99300.66;5052344;28;20200;-73
2022/07/08 09:54:59;;;;;;;4.72;4.30;;;;;;;34.79;34.96;99302.03;5051843;28;20608;-74
2022/07/08 09:57:27;;;;;;;5.03;4.63;;;;;;;34.77;34.86;99307.09;5051664;28;20715;-72
2022/07/08 09:59:54;;;;;;;4.93;4.63;;;;;;;34.33;35.32;99302.94;5051794;28;20672;-72
2022/07/08 10:02:21;;;;;;;4.88;4.68;;;;;;;34.54;34.59;99286.88;5051573;28;20196;-72
2022/07/08 10:04:50;;;;;;;4.97;4.57;;;;;;;34.80;34.65;99293.44;5051707;28;20196;-72
2022/07/08 10:07:17;;;;;;;4.88;3.58;;;;;;;34.98;34.34;99289.09;5051543;28;20196;-72
2022/07/08 10:09:44;;;;;;;4.75;4.30;;;;;;;34.78;33.62;99281.13;5051517;28;20192;-72
2022/07/08 10:12:15;;;;;;;4.80;4.10;;;;;;;34.61;34.25;99284.25;5052085;28;20218;-72
2022/07/08 10:14:45;;;;;;;7.43;4.15;;;;;;;34.76;34.02;99275.16;5052901;28;20534;-72
2022/07/08 10:17:17;;;;;;;4.90;4.68;;;;;;;34.97;33.45;99259.88;5051861;28;20200;-72
2022/07/08 10:19:46;;;;;;;4.32;4.13;;;;;;;35.14;33.22;99264.16;5051600;28;20719;-72
2022/07/08 10:22:16;;;;;;;4.90;4.53;;;;;;;34.82;34.15;99268.22;5051678;28;20219;-72
2022/07/08 10:24:44;;;;;;;4.30;3.38;;;;;;;34.20;35.22;99254.47;5052129;28;20188;-71
2022/07/08 10:27:11;;;;;;;3.78;3.60;;;;;;;33.71;36.35;99261.47;5051949;28;20207;-71
2022/07/08 10:29:40;;;;;;;4.18;3.88;;;;;;;33.27;37.03;99247.66;5051258;28;20192;-71
2022/07/08 10:32:23;;;;;;;4.45;4.25;;;;;;;33.38;36.24;99236.97;5051625;28;20283;-70
2022/07/08 10:35:09;;;;;;;4.40;4.10;;;;;;;33.64;35.81;99236.47;5052165;28;20267;-70
2022/07/08 10:37:49;;;;;;;3.88;3.67;;;;;;;33.25;36.89;99227.13;5051926;28;20774;-71
2022/07/08 10:40:57;;;;;;;4.53;4.33;;;;;;;33.14;36.82;99237.84;5051716;28;20192;-70
2022/07/08 10:43:27;;;;;;;4.50;4.03;;;;;;;33.26;36.76;99245.25;5026849;28;20250;-70
2022/07/08 10:46:04;;;;;;;4.63;4.43;;;;;;;33.07;36.65;99247.88;5051993;28;20286;-70
2022/07/08 10:48:47;;;;;;;4.30;4.10;;;;;;;32.79;37.08;99225.00;5051462;28;20557;-71
2022/07/08 10:51:45;;;;;;;4.93;4.73;;;;;;;33.19;36.99;99221.06;5051282;28;20188;-71
2022/07/08 10:54:25;;;;;;;4.63;4.43;;;;;;;33.45;36.20;99236.34;5045962;28;20188;-70
2022/07/08 10:56:54;;;;;;;4.47;4.28;;;;;;;33.02;35.72;99207.63;5051181;28;20213;-70
2022/07/08 10:59:23;;;;;;;4.30;3.93;;;;;;;32.50;37.11;99217.81;5051388;28;20637;-70
2022/07/08 11:01:55;;;;;;;4.03;3.83;;;;;;;32.39;36.90;99213.94;5051818;28;20200;-69
2022/07/08 11:04:51;;;;;;;5.60;4.40;;;;;;;32.75;37.19;99213.84;5054838;28;20189;-70
2022/07/08 11:07:27;;;;;;;4.67;4.37;;;;;;;33.08;36.70;99195.19;5049063;28;20200;-70
2022/07/08 11:09:55;;;;;;;3.87;3.77;;;;;;;33.19;36.52;99198.22;5054850;28;20276;-70
2022/07/08 11:12:25;;;;;;;4.30;3.95;;;;;;;33.17;36.52;99193.09;5055110;28;20196;-70
2022/07/08 11:14:55;;;;;;;3.77;3.57;;;;;;;32.98;36.13;99179.19;5056029;28;20289;-70
2022/07/08 11:17:24;;;;;;;5.03;4.00;;;;;;;32.88;35.84;99182.44;5054901;28;20224;-70
2022/07/08 11:19:53;;;;;;;4.95;3.70;;;;;;;33.05;36.33;99182.16;5055127;28;20247;-70
2022/07/08 11:22:21;;;;;;;5.78;4.10;;;;;;;33.10;35.69;99190.16;5054510;28;20199;-70
2022/07/08 11:24:49;;;;;;;3.50;3.30;;;;;;;32.95;34.70;99190.88;5055093;28;20196;-70
2022/07/08 11:27:16;;;;;;;4.47;3.87;;;;;;;32.99;35.52;99180.00;5054681;28;20226;-70
2022/07/08 11:29:48;;;;;;;4.90;3.90;;;;;;;32.78;35.97;99180.16;5054986;28;20200;-70
2022/07/08 11:32:15;;;;;;;3.80;3.50;;;;;;;33.00;35.54;99171.38;5054919;28;20274;-71
2022/07/08 11:34:44;;;;;;;4.43;3.50;;;;;;;33.21;35.77;99177.47;5054644;28;20657;-71
2022/07/08 11:37:10;;;;;;;3.70;3.60;;;;;;;33.20;36.10;99164.84;5054453;28;20699;-71
2022/07/08 11:39:37;;;;;;;4.30;3.87;;;;;;;32.83;37.26;99168.91;5054325;28;20204;-71
2022/07/08 11:42:05;;;;;;;4.53;3.80;;;;;;;32.82;35.74;99159.06;5055018;28;20228;-71